Time;durP1;ratioP1;P1;durP2;ratioP2;P2;SDS_P1;SDS_P2;PMS_P1;PMS_P2;Temp;Humidity;BMP_temperature;BMP_pressure;BME280_temperature;BME280_humidity;BME280_pressure;Samples;Min_cycle;Max_cycle;Signal;HPM_P1;HPM_P2
2022/03/28 00:01:52;;;;;;;4.65;4.45;;;;;;;7.37;80.73;102190.28;6105806;23;20971;-65
2022/03/28 00:04:19;;;;;;;4.95;4.68;;;;;;;7.21;80.89;102168.75;6117327;23;20532;-66
2022/03/28 00:06:46;;;;;;;5.32;5.13;;;;;;;7.18;80.85;102163.59;6109581;23;20617;-66
2022/03/28 00:09:12;;;;;;;3.70;3.60;;;;;;;6.90;80.54;102134.41;6112926;23;20053;-66
2022/03/28 00:11:39;;;;;;;5.30;5.10;;;;;;;7.31;81.10;102174.69;6113032;23;20031;-66
2022/03/28 00:14:05;;;;;;;4.15;3.95;;;;;;;6.77;80.50;102094.53;6087568;23;20418;-66
2022/03/28 00:16:32;;;;;;;3.75;3.65;;;;;;;7.10;81.51;102148.03;6110491;23;20108;-66
2022/03/28 00:18:59;;;;;;;3.72;3.63;;;;;;;7.22;80.78;102165.25;6087004;23;20494;-66
2022/03/28 00:21:25;;;;;;;4.20;4.00;;;;;;;7.18;80.60;102159.22;6112413;23;20030;-66
2022/03/28 00:23:52;;;;;;;4.57;4.38;;;;;;;7.06;81.57;102148.97;6118991;23;20256;-66
2022/03/28 00:26:19;;;;;;;3.70;3.60;;;;;;;7.12;80.88;102154.09;6110523;23;20746;-65
2022/03/28 00:28:46;;;;;;;5.75;5.45;;;;;;;7.10;81.07;102161.06;6111960;23;20033;-66
2022/03/28 00:31:14;;;;;;;4.30;4.10;;;;;;;7.06;81.31;102153.31;6111752;23;20080;-66
2022/03/28 00:33:41;;;;;;;5.57;5.28;;;;;;;7.02;81.60;102151.63;6086564;23;20017;-66
2022/03/28 00:36:07;;;;;;;4.35;4.15;;;;;;;6.82;81.65;102121.44;6112352;23;20080;-65
2022/03/28 00:38:34;;;;;;;4.30;4.00;;;;;;;6.92;81.83;102145.69;6107770;23;20013;-66
2022/03/28 00:41:01;;;;;;;5.30;4.30;;;;;;;6.71;82.57;102118.97;6113539;23;20017;-66
2022/03/28 00:43:28;;;;;;;4.00;3.80;;;;;;;6.85;82.81;102141.41;6116620;23;20022;-65
2022/03/28 00:45:54;;;;;;;4.13;3.92;;;;;;;6.83;82.00;102143.19;6116283;23;20080;-66
2022/03/28 00:48:21;;;;;;;4.35;4.15;;;;;;;6.76;83.57;102138.03;6093099;23;20024;-66
2022/03/28 00:50:48;;;;;;;5.72;5.43;;;;;;;6.55;83.66;102104.41;6115683;23;20035;-65
2022/03/28 00:53:15;;;;;;;4.07;3.88;;;;;;;6.51;84.24;102105.31;6114611;23;20024;-66
2022/03/28 00:55:42;;;;;;;5.25;5.05;;;;;;;6.57;84.41;102113.97;6112946;23;20024;-66
2022/03/28 00:58:08;;;;;;;3.70;3.60;;;;;;;6.51;84.08;102098.34;6119923;23;20009;-66
2022/03/28 01:00:35;;;;;;;4.45;4.25;;;;;;;6.58;83.32;102128.72;6113260;23;20077;-64
2022/03/28 01:03:03;;;;;;;3.92;3.72;;;;;;;6.56;83.36;102116.56;6115338;23;20021;-66
2022/03/28 01:05:31;;;;;;;4.05;3.85;;;;;;;6.50;84.01;102119.25;6112778;23;20505;-65
2022/03/28 01:07:59;;;;;;;3.70;3.60;;;;;;;6.61;84.26;102125.19;6117403;23;20491;-66
2022/03/28 01:10:26;;;;;;;3.53;3.42;;;;;;;6.15;83.86;102057.97;6113020;23;20029;-66
2022/03/28 01:12:53;;;;;;;3.50;3.40;;;;;;;6.53;84.62;102129.66;6113057;23;20961;-66
2022/03/28 01:15:20;;;;;;;4.15;3.95;;;;;;;6.52;84.00;102115.75;6126406;23;20107;-66
2022/03/28 01:20:32;;;;;;;3.70;3.60;;;;;;;6.44;83.90;102117.59;6081982;23;20033;-66
2022/03/28 01:22:59;;;;;;;3.90;3.70;;;;;;;6.41;84.84;102124.59;6085724;23;20250;-66
2022/03/28 01:25:29;;;;;;;3.53;3.42;;;;;;;6.37;85.67;102113.31;6087075;23;20060;-66
2022/03/28 01:27:58;;;;;;;3.40;3.30;;;;;;;6.32;86.06;102105.56;6082352;23;20083;-66
2022/03/28 01:30:28;;;;;;;3.70;3.60;;;;;;;6.09;85.10;102074.53;6059348;23;20018;-66
2022/03/28 01:32:56;;;;;;;4.35;4.15;;;;;;;5.91;85.12;102065.16;6087790;23;20510;-66
2022/03/28 01:35:37;;;;;;;3.88;3.72;;;;;;;6.11;85.86;102084.94;6088501;23;20360;-66
2022/03/28 01:38:06;;;;;;;3.95;3.78;;;;;;;6.13;85.23;102089.28;6085680;23;20045;-66
2022/03/28 01:40:34;;;;;;;3.70;3.50;;;;;;;6.10;85.15;102086.69;6086680;23;20025;-66
2022/03/28 01:43:01;;;;;;;3.50;3.40;;;;;;;5.84;86.47;102050.47;6086606;23;21297;-66
2022/03/28 01:45:27;;;;;;;4.20;4.00;;;;;;;6.02;86.30;102077.25;6088600;23;20104;-66
2022/03/28 01:47:54;;;;;;;4.03;3.83;;;;;;;5.99;86.72;102084.22;6077681;23;20092;-67
2022/03/28 01:50:22;;;;;;;3.50;3.40;;;;;;;5.98;87.40;102076.41;6089765;23;20029;-66
2022/03/28 01:52:49;;;;;;;5.22;5.03;;;;;;;5.97;87.34;102085.09;6089216;23;20022;-68
2022/03/28 01:55:15;;;;;;;4.32;4.13;;;;;;;5.95;87.19;102087.75;6081467;23;20088;-65
2022/03/28 01:57:43;;;;;;;4.97;4.78;;;;;;;5.81;86.78;102060.91;6090066;23;20133;-66
2022/03/28 02:00:15;;;;;;;3.60;3.50;;;;;;;5.79;87.57;102058.34;6083708;23;20018;-66
2022/03/28 02:02:42;;;;;;;5.68;5.45;;;;;;;5.94;87.50;102090.31;6077637;23;20013;-66
2022/03/28 02:05:11;;;;;;;3.35;3.25;;;;;;;5.91;87.68;102082.53;6088766;23;20124;-66
2022/03/28 02:07:39;;;;;;;5.22;5.03;;;;;;;5.26;87.33;101965.13;6080251;23;20443;-66
2022/03/28 02:10:11;;;;;;;3.58;3.47;;;;;;;5.84;87.68;102073.91;6088037;23;20123;-66
2022/03/28 02:12:38;;;;;;;4.18;4.03;;;;;;;5.81;87.55;102081.75;6081695;23;20028;-66
2022/03/28 02:15:06;;;;;;;4.05;3.85;;;;;;;5.77;87.15;102067.03;6078747;23;20026;-66
2022/03/28 02:17:34;;;;;;;3.92;3.72;;;;;;;5.62;86.79;102043.75;6082143;23;20487;-66
2022/03/28 02:20:02;;;;;;;4.00;3.80;;;;;;;5.71;88.07;102072.31;6105039;23;20052;-66
2022/03/28 02:22:28;;;;;;;3.50;3.40;;;;;;;5.46;88.29;102025.66;6118151;23;20058;-66
2022/03/28 02:24:55;;;;;;;3.40;3.30;;;;;;;5.56;88.54;102053.34;6109623;23;20343;-66
2022/03/28 02:27:21;;;;;;;4.03;3.83;;;;;;;5.65;88.32;102061.94;6109291;23;20029;-66
2022/03/28 02:29:48;;;;;;;5.15;4.95;;;;;;;5.64;88.95;102060.22;6116515;23;20025;-65
2022/03/28 02:32:14;;;;;;;3.78;3.63;;;;;;;5.32;88.53;102009.31;6112663;23;20044;-66
2022/03/28 02:34:40;;;;;;;5.72;5.45;;;;;;;5.58;88.37;102051.59;6112611;23;20045;-66
2022/03/28 02:37:07;;;;;;;3.92;3.72;;;;;;;5.57;89.34;102054.19;6118363;23;20041;-66
2022/03/28 02:39:34;;;;;;;3.42;3.33;;;;;;;5.54;89.52;102069.88;6116417;23;20021;-66
2022/03/28 02:42:01;;;;;;;3.60;3.50;;;;;;;5.20;90.33;102012.91;6117416;23;20033;-66
2022/03/28 02:44:27;;;;;;;3.90;3.70;;;;;;;5.45;89.83;102049.13;6112923;23;20064;-66
2022/03/28 02:46:54;;;;;;;3.42;3.33;;;;;;;5.42;89.14;102049.16;6115969;23;20951;-66
2022/03/28 02:49:20;;;;;;;3.55;3.45;;;;;;;5.34;89.27;102059.63;6119078;23;20025;-66
2022/03/28 02:51:47;;;;;;;5.50;5.30;;;;;;;5.25;89.76;102047.56;6115511;23;20061;-66
2022/03/28 02:54:13;;;;;;;5.88;5.55;;;;;;;4.93;91.31;101985.34;6114245;23;20381;-66
2022/03/28 02:56:40;;;;;;;4.43;4.22;;;;;;;5.06;90.67;102001.75;6120178;23;20029;-66
2022/03/28 02:59:07;;;;;;;3.72;3.58;;;;;;;5.19;90.76;102032.88;6116618;23;20340;-68
2022/03/28 03:01:33;;;;;;;3.30;3.20;;;;;;;5.12;90.57;102031.16;6121174;23;20029;-66
2022/03/28 03:04:00;;;;;;;3.92;3.72;;;;;;;5.09;90.35;102030.31;6112558;23;20228;-67
2022/03/28 03:06:27;;;;;;;3.30;3.20;;;;;;;5.06;90.23;102028.63;6102821;23;20168;-66
2022/03/28 03:08:53;;;;;;;3.38;3.28;;;;;;;5.05;90.60;102018.22;6121148;23;20080;-68
2022/03/28 03:11:20;;;;;;;3.50;3.40;;;;;;;5.03;89.98;102020.81;6111141;23;20477;-65
2022/03/28 03:13:48;;;;;;;5.30;5.07;;;;;;;5.01;89.79;102009.56;6115195;23;20055;-66
2022/03/28 03:16:15;;;;;;;3.90;3.70;;;;;;;5.03;91.10;102015.63;6124437;23;20029;-65
2022/03/28 03:18:42;;;;;;;5.68;5.45;;;;;;;4.60;92.00;101944.00;6110566;23;20246;-65
2022/03/28 03:21:08;;;;;;;3.90;3.70;;;;;;;4.73;91.57;101973.41;6115425;23;20014;-66
2022/03/28 03:23:35;;;;;;;4.22;4.03;;;;;;;4.92;92.63;102010.50;6113787;23;20043;-65
2022/03/28 03:26:01;;;;;;;3.30;3.20;;;;;;;4.95;92.79;102015.72;6113848;23;20029;-65
2022/03/28 03:28:27;;;;;;;3.35;3.25;;;;;;;4.95;92.93;102015.72;6114805;23;20017;-65
2022/03/28 03:30:54;;;;;;;3.40;3.30;;;;;;;4.91;91.95;102007.91;6109129;23;20253;-65
2022/03/28 03:33:20;;;;;;;3.30;3.20;;;;;;;3.96;93.15;101874.25;6116852;23;20363;-67
2022/03/28 03:35:47;;;;;;;4.68;4.47;;;;;;;4.83;92.29;102009.72;6105571;23;20098;-65
2022/03/28 03:38:13;;;;;;;3.35;3.25;;;;;;;4.78;93.08;102008.00;6116194;23;20014;-65
2022/03/28 03:40:40;;;;;;;4.53;4.32;;;;;;;4.74;93.58;102000.25;6118104;23;20672;-65
2022/03/28 03:43:07;;;;;;;3.35;3.25;;;;;;;4.72;nan;102002.84;6117841;23;20084;-65
2022/03/28 03:45:34;;;;;;;3.45;3.35;;;;;;;4.67;93.16;102006.34;6113219;23;20030;-66
2022/03/28 03:48:00;;;;;;;3.28;3.17;;;;;;;4.64;93.92;102009.84;6113608;23;20006;-65
2022/03/28 03:50:27;;;;;;;3.20;3.10;;;;;;;4.61;93.72;101999.47;6115719;23;20478;-65
2022/03/28 03:52:54;;;;;;;4.45;4.25;;;;;;;4.55;93.93;101986.50;6114093;23;20366;-65
2022/03/28 03:55:20;;;;;;;6.30;5.82;;;;;;;3.97;94.52;101889.84;6108418;23;20412;-65
2022/03/28 03:57:47;;;;;;;5.10;4.90;;;;;;;4.40;94.65;101959.72;6113791;23;20372;-65
2022/03/28 04:00:14;;;;;;;3.50;3.40;;;;;;;4.47;95.02;101977.88;6109585;23;20348;-67
2022/03/28 04:02:40;;;;;;;4.93;4.72;;;;;;;4.55;95.16;101995.19;6110264;23;20021;-65
2022/03/28 04:05:08;;;;;;;4.18;3.97;;;;;;;4.55;94.77;101983.91;6114412;23;20018;-67
2022/03/28 04:07:34;;;;;;;3.63;3.50;;;;;;;4.50;94.14;101983.06;6083506;23;20014;-65
2022/03/28 04:10:02;;;;;;;3.85;3.65;;;;;;;4.29;93.81;101955.47;6086029;23;20510;-65
2022/03/28 04:12:29;;;;;;;3.50;3.40;;;;;;;4.43;93.82;101978.78;6093202;23;20035;-65
2022/03/28 04:14:58;;;;;;;3.40;3.30;;;;;;;4.38;94.05;101978.81;6112961;23;21215;-66
2022/03/28 04:17:28;;;;;;;3.42;3.22;;;;;;;4.40;94.22;101977.06;6126150;23;20166;-65
2022/03/28 04:19:56;;;;;;;3.40;3.30;;;;;;;4.38;94.05;101971.88;6107760;23;20141;-64
2022/03/28 04:22:23;;;;;;;3.38;3.28;;;;;;;4.36;94.88;101971.03;6122355;23;20040;-67
2022/03/28 04:24:49;;;;;;;5.25;5.05;;;;;;;4.36;94.13;101965.81;6104140;23;20052;-65
2022/03/28 04:27:16;;;;;;;3.53;3.42;;;;;;;4.35;94.75;101961.50;6090686;23;20010;-66
2022/03/28 04:29:42;;;;;;;5.20;5.00;;;;;;;4.32;94.69;101964.13;6110847;23;20571;-65
2022/03/28 04:32:09;;;;;;;3.70;3.60;;;;;;;2.77;94.03;101698.41;6111277;23;20088;-65
2022/03/28 04:34:36;;;;;;;3.72;3.58;;;;;;;4.23;94.96;101946.00;6112328;23;20094;-62
2022/03/28 04:37:03;;;;;;;3.30;3.20;;;;;;;4.34;94.93;101956.31;6120262;23;20505;-65
2022/03/28 04:39:30;;;;;;;3.65;3.55;;;;;;;4.07;95.22;101915.75;6122242;23;20145;-67
2022/03/28 04:41:56;;;;;;;3.72;3.53;;;;;;;4.05;95.18;101917.50;6120887;23;20026;-67
2022/03/28 04:44:23;;;;;;;3.50;3.40;;;;;;;4.37;94.58;101958.88;6117739;23;20015;-65
2022/03/28 04:46:49;;;;;;;5.43;5.22;;;;;;;4.33;95.19;101959.78;6114704;23;20498;-68
2022/03/28 04:49:17;;;;;;;3.22;3.13;;;;;;;4.31;96.15;101956.31;6114196;23;20032;-65
2022/03/28 04:51:44;;;;;;;5.47;5.18;;;;;;;4.19;96.41;101944.28;6114178;23;20558;-67
2022/03/28 04:54:10;;;;;;;3.40;3.30;;;;;;;4.21;96.86;101947.75;6121855;23;20054;-67
2022/03/28 04:56:37;;;;;;;3.58;3.45;;;;;;;3.95;96.70;101917.56;6120700;23;20015;-66
2022/03/28 04:59:03;;;;;;;3.22;3.13;;;;;;;3.89;96.45;101909.81;6115731;23;20022;-66
2022/03/28 05:01:30;;;;;;;3.45;3.25;;;;;;;4.18;97.21;101965.94;6120268;23;20042;-66
2022/03/28 05:03:56;;;;;;;3.33;3.22;;;;;;;3.97;97.10;101918.41;6113633;23;22025;-66
2022/03/28 05:06:23;;;;;;;3.00;2.90;;;;;;;4.15;97.22;101943.44;6114213;23;20030;-66
2022/03/28 05:08:49;;;;;;;4.85;4.65;;;;;;;3.95;97.24;101893.34;6113212;23;20061;-65
2022/03/28 05:11:15;;;;;;;3.30;3.20;;;;;;;4.31;97.87;101961.50;6093777;23;20113;-67
2022/03/28 05:13:42;;;;;;;5.20;4.90;;;;;;;4.17;97.92;101939.09;6112363;23;20017;-66
2022/03/28 05:16:08;;;;;;;3.50;3.40;;;;;;;4.28;98.36;101954.59;6120825;23;20010;-66
2022/03/28 05:18:35;;;;;;;3.75;3.63;;;;;;;4.26;98.46;101958.09;6116733;23;20021;-67
2022/03/28 05:21:01;;;;;;;3.17;3.08;;;;;;;4.28;98.03;101956.34;6111284;23;20026;-66
2022/03/28 05:23:28;;;;;;;3.10;3.00;;;;;;;4.31;98.37;101958.91;6124476;23;20040;-67
2022/03/28 05:25:54;;;;;;;3.92;3.75;;;;;;;4.06;98.88;101911.44;6109061;23;20025;-66
2022/03/28 05:28:20;;;;;;;3.40;3.30;;;;;;;4.08;98.82;101930.47;6115514;23;20024;-67
2022/03/28 05:30:48;;;;;;;5.10;4.90;;;;;;;4.20;98.89;101959.84;6113766;23;20687;-66
2022/03/28 05:33:15;;;;;;;3.70;3.50;;;;;;;4.17;98.36;101956.44;6114741;23;20009;-68
2022/03/28 05:35:44;;;;;;;5.15;4.95;;;;;;;4.09;98.33;101947.78;6111529;23;20059;-66
2022/03/28 05:38:11;;;;;;;3.70;3.50;;;;;;;4.13;97.59;101959.88;6113274;23;20163;-67
2022/03/28 05:40:37;;;;;;;4.15;4.00;;;;;;;4.12;97.12;101952.97;6105124;23;20014;-65
2022/03/28 05:43:04;;;;;;;3.45;3.35;;;;;;;4.12;96.57;101952.97;6118999;23;20250;-65
2022/03/28 05:45:30;;;;;;;3.97;3.78;;;;;;;4.09;96.33;101963.38;6113681;23;20579;-65
2022/03/28 05:47:57;;;;;;;3.30;3.15;;;;;;;4.08;96.80;101943.47;6112252;23;20678;-65
2022/03/28 05:50:24;;;;;;;2.90;2.80;;;;;;;4.20;97.11;101956.38;6115719;23;20430;-65
2022/03/28 05:52:50;;;;;;;5.10;4.88;;;;;;;4.23;96.77;101956.38;6088561;23;20009;-65
2022/03/28 05:55:16;;;;;;;3.30;3.20;;;;;;;4.27;96.90;101958.09;6099368;23;20512;-65
2022/03/28 05:57:45;;;;;;;5.18;4.95;;;;;;;3.50;95.96;101825.19;6113119;23;20132;-66
2022/03/28 06:00:13;;;;;;;3.20;3.10;;;;;;;3.94;96.32;101900.25;6114749;23;20032;-65
2022/03/28 06:02:44;;;;;;;3.40;3.30;;;;;;;4.30;97.31;101955.47;6113666;23;20568;-65
2022/03/28 06:05:12;;;;;;;3.55;3.45;;;;;;;4.50;98.08;101951.88;6113472;23;20021;-66
2022/03/28 06:07:39;;;;;;;3.78;3.63;;;;;;;4.36;97.73;101915.59;6118706;23;20037;-65
2022/03/28 06:10:05;;;;;;;3.35;3.25;;;;;;;4.57;97.14;101940.53;6111725;23;20028;-66
2022/03/28 06:12:32;;;;;;;4.18;3.95;;;;;;;4.55;97.63;101900.69;6117938;23;20591;-66
2022/03/28 06:14:58;;;;;;;3.20;3.10;;;;;;;4.96;97.38;101947.19;6131492;23;20025;-66
2022/03/28 06:17:26;;;;;;;3.25;3.15;;;;;;;4.93;98.10;101956.75;6120542;23;20014;-66
2022/03/28 06:19:52;;;;;;;4.60;4.40;;;;;;;4.97;97.92;101942.84;6111085;23;20049;-65
2022/03/28 06:22:19;;;;;;;3.65;3.45;;;;;;;5.19;97.74;101960.00;6118898;23;20092;-65
2022/03/28 06:24:47;;;;;;;5.30;4.90;;;;;;;5.33;97.92;101964.19;6115338;23;20036;-65
2022/03/28 06:27:13;;;;;;;3.30;3.20;;;;;;;5.24;96.80;101928.72;6105121;23;20340;-65
2022/03/28 06:29:40;;;;;;;5.32;5.00;;;;;;;5.34;96.63;101919.91;6117282;23;20130;-65
2022/03/28 06:32:06;;;;;;;3.95;3.75;;;;;;;5.69;95.70;101957.75;6120344;23;20030;-65
2022/03/28 06:34:33;;;;;;;3.50;3.40;;;;;;;5.82;95.74;101954.97;6113764;23;20152;-66
2022/03/28 06:37:00;;;;;;;3.35;3.25;;;;;;;5.89;95.19;101948.81;6117500;23;20021;-66
2022/03/28 06:39:26;;;;;;;3.22;3.13;;;;;;;6.06;94.72;101961.66;6114380;23;20029;-65
2022/03/28 06:41:53;;;;;;;4.28;4.07;;;;;;;6.00;94.09;101920.91;6110368;23;20190;-67
2022/03/28 06:44:19;;;;;;;3.88;3.60;;;;;;;6.32;93.47;101956.94;6118153;23;20021;-65
2022/03/28 06:46:46;;;;;;;5.22;5.03;;;;;;;6.30;93.29;101921.38;6111012;23;20252;-66
2022/03/28 06:49:13;;;;;;;3.40;3.30;;;;;;;6.57;92.94;101944.41;6103262;23;20021;-66
2022/03/28 06:51:40;;;;;;;3.53;3.42;;;;;;;6.69;93.84;101935.50;6101759;23;20026;-65
2022/03/28 06:54:08;;;;;;;3.50;3.40;;;;;;;6.82;93.50;101920.53;6105879;23;20052;-65
2022/03/28 06:56:36;;;;;;;4.47;4.18;;;;;;;7.16;93.30;101944.28;6120152;23;20049;-66
2022/03/28 06:59:02;;;;;;;3.70;3.60;;;;;;;7.22;92.54;101916.34;6109554;23;20084;-65
2022/03/28 07:01:29;;;;;;;3.42;3.33;;;;;;;7.51;92.04;101931.47;6118068;23;20104;-66
2022/03/28 07:03:55;;;;;;;3.90;3.70;;;;;;;7.69;91.16;101933.69;6114612;23;20579;-66
2022/03/28 07:06:22;;;;;;;4.25;4.05;;;;;;;7.84;91.13;101934.28;6110249;23;20360;-66
2022/03/28 07:08:48;;;;;;;6.18;5.88;;;;;;;7.85;90.76;101915.97;6113714;23;20137;-65
2022/03/28 07:11:15;;;;;;;3.97;3.78;;;;;;;7.74;89.36;101863.06;6110282;23;20020;-65
2022/03/28 07:13:41;;;;;;;5.55;5.35;;;;;;;8.24;88.82;101925.56;6118406;23;20587;-65
2022/03/28 07:16:08;;;;;;;4.82;4.63;;;;;;;8.27;88.73;101907.19;6106643;23;20073;-64
2022/03/28 07:18:35;;;;;;;4.18;3.97;;;;;;;8.55;88.82;101920.53;6106831;23;20035;-67
2022/03/28 07:21:01;;;;;;;4.20;3.90;;;;;;;8.77;86.87;101919.09;6108032;23;20360;-65
2022/03/28 07:23:28;;;;;;;4.35;4.10;;;;;;;8.91;87.43;101920.50;6109143;23;20469;-65
2022/03/28 07:25:56;;;;;;;4.18;3.97;;;;;;;8.76;87.15;101867.66;6104794;23;21392;-65
2022/03/28 07:28:22;;;;;;;4.40;4.10;;;;;;;9.19;86.93;101925.88;6113341;23;20387;-65
2022/03/28 07:30:49;;;;;;;6.07;5.78;;;;;;;9.34;87.09;101916.75;6103775;23;20252;-67
2022/03/28 07:33:15;;;;;;;4.75;4.55;;;;;;;9.47;86.56;101923.38;6106057;23;20038;-67
2022/03/28 07:35:43;;;;;;;5.90;5.60;;;;;;;9.52;86.57;101897.03;6106848;23;20264;-66
2022/03/28 07:38:10;;;;;;;4.40;4.20;;;;;;;9.85;85.21;101915.31;6110720;23;20018;-65
2022/03/28 07:40:43;;;;;;;6.60;5.95;;;;;;;9.58;84.66;101854.91;6106314;23;20036;-65
2022/03/28 07:43:10;;;;;;;4.25;4.05;;;;;;;10.10;83.99;101918.94;6115765;23;20181;-68
2022/03/28 07:45:37;;;;;;;5.03;4.82;;;;;;;10.07;83.48;101868.31;6098104;23;20061;-62
2022/03/28 07:48:06;;;;;;;4.80;4.60;;;;;;;10.13;84.28;101887.34;6119602;23;20493;-65
2022/03/28 07:50:34;;;;;;;4.53;4.30;;;;;;;10.09;83.67;101848.16;6102421;23;20065;-68
2022/03/28 07:53:01;;;;;;;5.05;4.82;;;;;;;10.45;83.10;101874.13;6114858;23;20517;-67
2022/03/28 07:55:28;;;;;;;4.40;4.20;;;;;;;10.42;82.82;101847.97;6089143;23;20090;-67
2022/03/28 07:57:55;;;;;;;4.90;4.70;;;;;;;10.86;82.50;101899.00;6102890;23;20021;-68
2022/03/28 08:00:21;;;;;;;4.40;4.20;;;;;;;10.87;81.92;101868.34;6092717;23;20021;-65
2022/03/28 08:02:50;;;;;;;6.65;6.25;;;;;;;11.01;80.58;101899.41;6100260;23;20139;-65
2022/03/28 08:05:17;;;;;;;4.72;4.53;;;;;;;11.23;80.37;101886.38;6112259;23;20063;-68
2022/03/28 08:07:43;;;;;;;4.50;4.30;;;;;;;11.16;79.59;101841.03;6112983;23;20255;-68
2022/03/28 08:10:10;;;;;;;5.25;5.00;;;;;;;11.57;78.61;101886.84;6119383;23;20017;-68
2022/03/28 08:12:37;;;;;;;5.07;4.80;;;;;;;11.56;78.81;101885.09;6121242;23;20279;-69
2022/03/28 08:15:07;;;;;;;4.97;4.68;;;;;;;11.30;77.86;101807.22;6115018;23;20511;-67
2022/03/28 08:17:38;;;;;;;4.63;4.43;;;;;;;11.82;77.32;101878.00;6112236;23;20029;-69
2022/03/28 08:20:06;;;;;;;4.40;4.20;;;;;;;11.88;77.47;101883.03;6068207;23;20041;-67
2022/03/28 08:22:39;;;;;;;5.03;4.72;;;;;;;12.02;77.25;101873.78;6085911;23;20490;-66
2022/03/28 08:25:07;;;;;;;4.63;4.43;;;;;;;12.07;75.93;101871.84;6062701;23;20037;-66
2022/03/28 08:27:34;;;;;;;4.45;4.25;;;;;;;12.04;75.89;101848.28;6078607;23;20222;-67
2022/03/28 08:30:00;;;;;;;8.18;5.43;;;;;;;12.34;75.69;101870.72;6079457;23;20326;-65
2022/03/28 08:32:27;;;;;;;4.88;4.68;;;;;;;12.33;75.65;101869.00;6085884;23;20100;-67
2022/03/28 08:34:53;;;;;;;4.80;4.60;;;;;;;12.23;75.13;101865.03;6080187;23;20056;-67
2022/03/28 08:37:21;;;;;;;5.28;4.97;;;;;;;12.23;75.75;101843.97;6084147;23;20376;-67
2022/03/28 08:39:54;;;;;;;8.45;6.45;;;;;;;12.52;75.76;101855.09;6060129;23;20049;-67
2022/03/28 08:42:24;;;;;;;6.22;5.80;;;;;;;12.67;75.38;101867.63;6084076;23;20080;-67
2022/03/28 08:44:52;;;;;;;6.18;5.88;;;;;;;12.70;74.39;101864.84;6084934;23;20018;-67
2022/03/28 08:47:20;;;;;;;5.82;4.72;;;;;;;12.67;74.59;101846.53;6084294;23;20042;-67
2022/03/28 08:49:47;;;;;;;6.68;6.25;;;;;;;12.96;74.50;101862.88;6080279;23;20551;-66
2022/03/28 08:52:16;;;;;;;5.43;4.93;;;;;;;13.03;74.15;101850.25;6088393;23;20102;-67
2022/03/28 08:54:43;;;;;;;6.53;6.22;;;;;;;11.76;72.97;101633.66;6079367;23;20420;-67
2022/03/28 08:57:15;;;;;;;4.88;4.68;;;;;;;12.95;73.62;101784.75;6082785;23;20068;-67
2022/03/28 08:59:41;;;;;;;6.82;6.43;;;;;;;13.06;71.95;101789.53;6083275;23;20038;-67
2022/03/28 09:02:30;;;;;;;5.28;4.97;;;;;;;12.60;72.26;101696.75;6077866;23;20014;-67
2022/03/28 09:05:00;;;;;;;5.28;5.07;;;;;;;13.61;72.34;101841.53;6083303;23;20018;-67
2022/03/28 09:07:28;;;;;;;5.10;4.80;;;;;;;13.62;71.10;101815.09;6081426;23;20018;-67
2022/03/28 09:10:06;;;;;;;5.50;5.20;;;;;;;13.87;71.55;101841.19;6055692;23;20023;-66
2022/03/28 09:12:39;;;;;;;5.85;5.38;;;;;;;13.51;69.64;101783.09;6080075;23;20022;-66
2022/03/28 09:15:09;;;;;;;7.32;4.90;;;;;;;13.94;70.12;101824.09;6082091;23;20015;-68
2022/03/28 09:17:40;;;;;;;5.90;5.50;;;;;;;14.14;69.95;101831.06;6081920;23;20033;-69
2022/03/28 09:20:07;;;;;;;6.82;6.43;;;;;;;14.10;69.15;101791.69;6110381;23;20021;-68
2022/03/28 09:22:37;;;;;;;5.80;5.50;;;;;;;14.27;68.69;101807.56;6111508;23;20094;-67
2022/03/28 09:25:06;;;;;;;6.00;5.60;;;;;;;14.56;67.72;101824.59;6127102;23;20096;-68
2022/03/28 09:27:39;;;;;;;5.30;5.00;;;;;;;14.76;67.70;101820.09;6115562;23;20092;-68
2022/03/28 09:30:14;;;;;;;5.78;5.45;;;;;;;14.82;67.59;101814.47;6112655;23;20080;-68
2022/03/28 09:32:43;;;;;;;8.00;7.43;;;;;;;14.94;65.71;101811.19;6117799;23;20019;-68
2022/03/28 09:35:13;;;;;;;6.15;5.32;;;;;;;15.06;64.41;101814.97;6084327;23;20033;-68
2022/03/28 09:38:02;;;;;;;7.00;6.38;;;;;;;14.78;64.58;101775.94;6090230;23;20029;-68
2022/03/28 09:40:33;;;;;;;6.20;5.80;;;;;;;15.00;64.10;101803.88;6117270;23;20018;-68
2022/03/28 09:43:03;;;;;;;5.80;5.40;;;;;;;14.91;64.80;101762.91;6083619;23;20081;-68
2022/03/28 09:45:34;;;;;;;5.95;5.50;;;;;;;15.12;63.67;101795.28;6116956;23;20029;-68
2022/03/28 09:48:08;;;;;;;6.20;5.60;;;;;;;15.26;66.08;101802.47;6124103;23;20076;-68
2022/03/28 09:50:41;;;;;;;6.20;5.90;;;;;;;15.33;65.45;101757.09;6110509;23;20241;-68
2022/03/28 09:53:10;;;;;;;5.82;5.30;;;;;;;15.56;63.77;101792.84;6113105;23;20486;-67
2022/03/28 09:56:04;;;;;;;5.43;5.03;;;;;;;15.72;63.91;101779.66;6110514;23;20040;-69
2022/03/28 09:58:46;;;;;;;5.43;5.13;;;;;;;15.88;62.65;101786.72;6112050;23;20063;-68
2022/03/28 10:01:15;;;;;;;8.27;7.70;;;;;;;16.07;62.61;101782.06;6107268;23;20006;-68
2022/03/28 10:03:45;;;;;;;7.22;6.80;;;;;;;15.99;61.52;101786.94;6107468;23;20347;-68
2022/03/28 10:06:12;;;;;;;7.60;5.97;;;;;;;15.83;61.91;101731.38;6114323;23;20037;-68
2022/03/28 10:08:39;;;;;;;7.30;6.90;;;;;;;16.14;61.56;101779.91;6114235;23;20029;-68
2022/03/28 10:11:06;;;;;;;5.75;5.35;;;;;;;15.99;61.99;101775.50;6108989;23;20032;-68
2022/03/28 10:13:33;;;;;;;7.65;6.22;;;;;;;15.93;60.94;101766.97;6117548;23;20022;-68
2022/03/28 10:16:02;;;;;;;6.78;6.45;;;;;;;16.22;61.55;101777.66;6108069;23;20023;-68
2022/03/28 10:18:31;;;;;;;7.03;6.38;;;;;;;16.29;60.16;101755.16;6108210;23;20100;-68
2022/03/28 10:21:01;;;;;;;7.03;6.47;;;;;;;16.11;58.43;101738.56;6115698;23;20021;-68
2022/03/28 10:23:46;;;;;;;6.22;5.63;;;;;;;16.37;58.59;101765.31;6118880;23;20053;-68
2022/03/28 10:26:13;;;;;;;6.63;6.13;;;;;;;16.71;58.23;101774.72;6105031;23;20123;-68
2022/03/28 10:28:40;;;;;;;8.43;6.85;;;;;;;15.93;57.26;101780.19;6121650;23;20081;-68
2022/03/28 10:31:13;;;;;;;5.90;5.60;;;;;;;15.97;58.65;101705.91;6109655;23;20119;-68
2022/03/28 10:34:00;;;;;;;;;;;;;;;16.41;57.62;101752.72;6093583;23;20917;-68
2022/03/28 10:36:32;;;;;;;6.50;6.10;;;;;;;16.22;55.87;101719.41;6091396;23;19912;-68
2022/03/28 10:39:37;;;;;;;6.60;6.10;;;;;;;15.26;56.12;101594.41;6112376;23;20030;-68
2022/03/28 10:42:06;;;;;;;5.97;5.53;;;;;;;16.20;55.41;101705.41;5966835;23;20749;-68
2022/03/28 10:45:09;;;;;;;5.47;5.22;;;;;;;16.24;55.55;101680.44;6076645;23;20088;-68
2022/03/28 10:47:48;;;;;;;5.72;5.43;;;;;;;16.57;55.14;101705.81;6117264;23;20028;-68
2022/03/28 10:50:29;;;;;;;5.95;5.47;;;;;;;16.73;55.55;101724.25;6112001;23;20030;-68
2022/03/28 10:53:13;;;;;;;7.53;7.03;;;;;;;16.34;55.34;101684.22;6118081;23;20443;-68
2022/03/28 10:55:48;;;;;;;7.82;7.25;;;;;;;16.69;55.78;101720.94;6108706;23;20093;-69
2022/03/28 10:58:15;;;;;;;9.43;6.95;;;;;;;17.01;55.18;101717.28;6110621;23;20074;-69
2022/03/28 11:01:11;;;;;;;7.32;6.82;;;;;;;17.10;54.45;101714.91;6120859;23;20343;-69
2022/03/28 11:03:47;;;;;;;6.38;6.07;;;;;;;17.18;53.03;101709.13;6105411;23;20029;-69
2022/03/28 11:06:16;;;;;;;6.95;6.38;;;;;;;17.70;53.03;101699.53;6104442;23;20034;-67
2022/03/28 11:08:46;;;;;;;7.43;6.82;;;;;;;17.95;51.78;101701.44;6112670;23;20021;-67
2022/03/28 11:11:20;;;;;;;6.40;5.85;;;;;;;17.84;50.60;101699.53;6112457;23;20104;-67
2022/03/28 11:14:16;;;;;;;8.75;8.13;;;;;;;17.81;51.29;101688.22;6110382;23;20021;-67
2022/03/28 11:16:53;;;;;;;12.20;7.95;;;;;;;18.14;51.22;101679.78;6084095;23;20049;-68
2022/03/28 11:19:23;;;;;;;6.30;5.85;;;;;;;18.04;50.20;101625.59;6110581;23;20025;-67
2022/03/28 11:21:59;;;;;;;8.30;7.68;;;;;;;17.72;50.54;101685.22;6112839;23;20154;-67
2022/03/28 11:24:52;;;;;;;6.72;5.93;;;;;;;17.84;51.13;101677.41;6114142;23;20310;-67
2022/03/28 11:27:21;;;;;;;6.15;5.85;;;;;;;18.14;50.75;101677.13;6108537;23;20029;-67
2022/03/28 11:29:49;;;;;;;8.55;7.95;;;;;;;17.93;50.38;101674.16;6107826;23;20045;-66
2022/03/28 11:32:19;;;;;;;6.40;6.05;;;;;;;18.06;48.95;101669.72;6114502;23;20431;-67
2022/03/28 11:34:54;;;;;;;9.38;7.93;;;;;;;18.25;49.42;101665.78;6106355;23;20032;-67
2022/03/28 11:37:24;;;;;;;6.88;6.35;;;;;;;18.08;49.40;101658.94;6110701;23;20025;-67
2022/03/28 11:40:04;;;;;;;8.60;7.97;;;;;;;18.05;49.53;101660.03;6105254;23;20494;-67
2022/03/28 11:42:34;;;;;;;7.13;6.57;;;;;;;17.68;50.00;101593.47;6108971;23;20021;-68